createdAt,value
2023-03-25T00:01:26.172Z,101049.89
2023-03-25T00:03:54.669Z,101047.83
2023-03-25T00:06:22.840Z,101044.55
2023-03-25T00:08:51.962Z,101049.05
2023-03-25T00:11:20.475Z,101046.11
2023-03-25T00:13:49.231Z,101045.61
2023-03-25T00:16:25.842Z,101042.84
2023-03-25T00:18:54.229Z,101045.42
2023-03-25T00:21:23.577Z,101040.61
2023-03-25T00:23:51.813Z,101040.94
2023-03-25T00:26:21.568Z,101036.24
2023-03-25T00:28:49.733Z,101033.84
2023-03-25T00:31:19.583Z,101035.55
2023-03-25T00:33:50.806Z,101032.48
2023-03-25T00:36:22.603Z,101036.26
2023-03-25T00:38:51.342Z,101034.55
2023-03-25T00:41:25.756Z,101035.24
2023-03-25T00:43:56.672Z,101035.44
2023-03-25T00:46:27.615Z,101037.67
2023-03-25T00:48:57.456Z,101030.27
2023-03-25T00:51:31.357Z,101032.86
2023-03-25T00:54:00.553Z,101030.45
2023-03-25T00:56:31.059Z,101024.75
2023-03-25T00:58:59.456Z,101022.34
2023-03-25T01:01:28.717Z,101022.17
2023-03-25T01:04:00.347Z,101021.33
2023-03-25T01:06:32.534Z,101022.35
2023-03-25T01:09:06.119Z,101015.11
2023-03-25T01:11:37.757Z,101020.27
2023-03-25T01:14:07.829Z,101015.11
2023-03-25T01:16:37.921Z,101015.27
2023-03-25T01:19:06.207Z,101013.90
2023-03-25T01:21:36.381Z,101006.48
2023-03-25T01:24:06.548Z,100999.95
2023-03-25T01:26:34.766Z,100996.88
2023-03-25T01:29:03.009Z,100999.45
2023-03-25T01:31:34.655Z,100994.09
2023-03-25T01:34:03.241Z,100992.00
2023-03-25T01:36:31.437Z,100990.79
2023-03-25T01:39:01.642Z,100987.86
2023-03-25T01:41:46.347Z,100987.33
2023-03-25T01:44:24.246Z,100981.13
2023-03-25T01:46:54.307Z,100978.53
2023-03-25T01:49:30.373Z,100979.56
2023-03-25T01:52:02.817Z,100982.83
2023-03-25T01:54:31.132Z,100979.73
2023-03-25T01:57:00.165Z,100977.87
2023-03-25T01:59:28.843Z,100976.31
2023-03-25T02:02:02.748Z,100970.48
2023-03-25T02:04:39.445Z,100969.65
2023-03-25T02:07:08.824Z,100970.52
2023-03-25T02:09:37.414Z,100969.64
2023-03-25T02:12:08.433Z,100972.38
2023-03-25T02:14:39.306Z,100970.66
2023-03-25T02:17:15.637Z,100973.23
2023-03-25T02:20:09.374Z,100971.02
2023-03-25T02:23:28.536Z,100969.46
2023-03-25T02:26:05.869Z,100969.11
2023-03-25T02:28:51.574Z,100964.83
2023-03-25T02:31:50.130Z,100962.95
2023-03-25T02:34:18.377Z,100965.17
2023-03-25T02:37:11.780Z,100961.72
2023-03-25T02:39:41.481Z,100955.66
2023-03-25T02:42:22.101Z,100953.93
2023-03-25T02:45:15.737Z,100957.20
2023-03-25T02:47:50.401Z,100955.14
2023-03-25T02:50:30.956Z,100957.02
2023-03-25T02:53:01.214Z,100959.75
2023-03-25T02:55:33.600Z,100961.48
2023-03-25T02:58:04.242Z,100958.20
2023-03-25T03:00:38.505Z,100952.52
2023-03-25T03:03:08.539Z,100954.25
2023-03-25T03:05:44.122Z,100953.05
2023-03-25T03:08:24.738Z,100954.23
2023-03-25T03:11:02.761Z,100949.92
2023-03-25T03:14:01.487Z,100946.30
2023-03-25T03:16:34.234Z,100949.52
2023-03-25T03:19:21.440Z,100948.94
2023-03-25T03:21:56.753Z,100946.24
2023-03-25T03:24:32.424Z,100944.21
2023-03-25T03:27:25.273Z,100945.77
2023-03-25T03:29:56.617Z,100947.98
2023-03-25T03:32:36.897Z,100942.50
2023-03-25T03:35:14.560Z,100944.19
2023-03-25T03:37:48.696Z,100944.63
2023-03-25T03:40:19.014Z,100941.67
2023-03-25T03:42:50.970Z,100947.75
2023-03-25T03:45:27.330Z,100949.10
2023-03-25T03:47:56.996Z,100950.30
2023-03-25T03:50:34.532Z,100950.45
2023-03-25T03:53:13.238Z,100948.04
2023-03-25T03:56:22.107Z,100954.98
2023-03-25T03:58:53.390Z,100960.17
2023-03-25T04:01:30.770Z,100954.27
2023-03-25T04:04:06.592Z,100954.80
2023-03-25T04:06:35.574Z,100952.02
2023-03-25T04:09:27.676Z,100960.10
2023-03-25T04:12:18.318Z,100954.80
2023-03-25T04:14:48.188Z,100957.04
2023-03-25T04:17:17.772Z,100959.10
2023-03-25T04:19:49.094Z,100958.02
2023-03-25T04:22:21.966Z,100958.13
2023-03-25T04:24:52.056Z,100959.52
2023-03-25T04:27:23.212Z,100967.42
2023-03-25T04:29:52.246Z,100967.77
2023-03-25T04:32:20.663Z,100962.56
2023-03-25T04:34:49.268Z,100966.85
2023-03-25T04:37:17.480Z,100966.64
2023-03-25T04:39:45.700Z,100965.14
2023-03-25T04:42:19.127Z,100970.51
2023-03-25T04:44:47.826Z,100971.59
2023-03-25T04:47:23.932Z,100971.30
2023-03-25T04:49:53.020Z,100972.84
2023-03-25T04:52:21.335Z,100967.84
2023-03-25T04:54:50.192Z,100968.98
2023-03-25T04:57:20.467Z,100973.11
2023-03-25T04:59:50.468Z,100970.73
2023-03-25T05:02:20.914Z,100970.55
2023-03-25T05:04:50.248Z,100971.11
2023-03-25T05:07:19.015Z,100976.04
2023-03-25T05:09:48.412Z,100977.26
2023-03-25T05:12:17.357Z,100980.55
2023-03-25T05:14:45.508Z,100983.98
2023-03-25T05:17:14.311Z,100983.13
2023-03-25T05:19:44.129Z,100988.27
2023-03-25T05:22:13.197Z,100987.21
2023-03-25T05:24:45.228Z,100985.64
2023-03-25T05:27:20.367Z,100984.25
2023-03-25T05:29:48.509Z,100981.61
2023-03-25T05:32:18.013Z,100979.00
2023-03-25T05:34:47.276Z,100979.58
2023-03-25T05:37:15.986Z,100974.94
2023-03-25T05:39:46.426Z,100974.56
2023-03-25T05:42:22.900Z,100974.67
2023-03-25T05:44:52.624Z,100978.26
2023-03-25T05:47:25.133Z,100975.84
2023-03-25T05:49:54.447Z,100973.07
2023-03-25T05:52:27.578Z,100974.45
2023-03-25T05:54:55.951Z,100978.44
2023-03-25T05:57:24.149Z,100981.85
2023-03-25T05:59:52.334Z,100979.48
2023-03-25T06:02:20.698Z,100979.91
2023-03-25T06:04:50.873Z,100982.39
2023-03-25T06:07:22.467Z,100982.35
2023-03-25T06:09:56.408Z,100983.77
2023-03-25T06:12:27.732Z,100976.87
2023-03-25T06:14:55.921Z,100974.43
2023-03-25T06:17:24.214Z,100970.60
2023-03-25T06:19:52.399Z,100971.24
2023-03-25T06:22:22.298Z,100972.54
2023-03-25T06:24:53.628Z,100967.89
2023-03-25T06:27:23.958Z,100967.52
2023-03-25T06:29:52.280Z,100966.50
2023-03-25T06:32:20.572Z,100959.23
2023-03-25T06:34:49.974Z,100958.67
2023-03-25T06:37:18.529Z,100956.25
2023-03-25T06:39:50.389Z,100956.95
2023-03-25T06:42:24.295Z,100954.45
2023-03-25T06:45:10.945Z,100955.99
2023-03-25T06:47:46.190Z,100950.39
2023-03-25T06:50:14.412Z,100948.63
2023-03-25T06:52:42.848Z,100954.05
2023-03-25T06:55:12.657Z,100960.70
2023-03-25T06:57:42.223Z,100967.23
2023-03-25T07:00:14.574Z,100965.80
2023-03-25T07:02:48.794Z,100968.77
2023-03-25T07:05:16.989Z,100972.94
2023-03-25T07:07:45.850Z,100976.58
2023-03-25T07:10:15.208Z,100977.98
2023-03-25T07:12:44.276Z,100974.70
2023-03-25T07:15:16.321Z,100973.48
2023-03-25T07:17:49.396Z,100971.56
2023-03-25T07:20:20.365Z,100965.66
2023-03-25T07:22:50.618Z,100966.14
2023-03-25T07:25:18.879Z,100960.26
2023-03-25T07:27:52.681Z,100957.95
2023-03-25T07:30:21.050Z,100956.87
2023-03-25T07:32:49.480Z,100954.25
2023-03-25T07:35:17.856Z,100950.23
2023-03-25T07:37:47.512Z,100949.02
2023-03-25T07:40:16.002Z,100947.67
2023-03-25T07:42:45.193Z,100945.60
2023-03-25T07:45:44.385Z,100948.36
2023-03-25T07:48:23.128Z,100949.81
2023-03-25T07:50:52.246Z,100954.27
2023-03-25T07:53:23.238Z,100950.77
2023-03-25T07:55:51.752Z,100952.40
2023-03-25T07:58:20.437Z,100949.93
2023-03-25T08:00:49.132Z,100947.70
2023-03-25T08:03:17.611Z,100949.23
2023-03-25T08:05:49.247Z,100953.02
2023-03-25T08:08:18.333Z,100944.45
2023-03-25T08:10:48.254Z,100945.63
2023-03-25T08:13:19.909Z,100948.81
2023-03-25T08:15:53.075Z,100949.54
2023-03-25T08:18:22.852Z,100948.38
2023-03-25T08:20:59.358Z,100949.55
2023-03-25T08:23:27.695Z,100957.00
2023-03-25T08:25:57.077Z,100960.15
2023-03-25T08:28:27.128Z,100961.88
2023-03-25T08:30:56.281Z,100959.87
2023-03-25T08:33:34.683Z,100953.91
2023-03-25T08:36:04.055Z,100954.64
2023-03-25T08:38:34.962Z,100950.63
2023-03-25T08:41:04.923Z,100952.13
2023-03-25T08:43:32.979Z,100954.95
2023-03-25T08:46:08.597Z,100946.95
2023-03-25T08:48:38.017Z,100943.04
2023-03-25T08:51:07.334Z,100938.69
2023-03-25T08:53:35.962Z,100930.50
2023-03-25T08:56:04.857Z,100926.73
2023-03-25T08:58:35.740Z,100927.92
2023-03-25T09:01:04.663Z,100929.21
2023-03-25T09:03:33.065Z,100930.88
2023-03-25T09:06:05.916Z,100926.73
2023-03-25T09:08:34.809Z,100924.03
2023-03-25T09:11:07.191Z,100925.42
2023-03-25T09:13:40.096Z,100928.32
2023-03-25T09:16:09.175Z,100928.95
2023-03-25T09:18:37.422Z,100928.59
2023-03-25T09:21:08.192Z,100920.80
2023-03-25T09:23:36.591Z,100917.61
2023-03-25T09:26:06.016Z,100917.55
2023-03-25T09:28:34.276Z,100918.78
2023-03-25T09:31:06.168Z,100917.27
2023-03-25T09:33:34.678Z,100917.11
2023-03-25T09:36:03.814Z,100917.45
2023-03-25T09:38:39.567Z,100913.35
2023-03-25T09:41:23.293Z,100911.86
2023-03-25T09:44:17.597Z,100910.58
2023-03-25T09:46:46.497Z,100910.50
2023-03-25T09:49:18.935Z,100912.17
2023-03-25T09:51:51.773Z,100911.52
2023-03-25T09:54:26.215Z,100915.99
2023-03-25T09:56:55.416Z,100915.77
2023-03-25T09:59:24.398Z,100914.20
2023-03-25T10:02:15.010Z,100908.98
2023-03-25T10:04:43.965Z,100901.04
2023-03-25T10:07:23.723Z,100898.69
2023-03-25T10:10:26.076Z,100893.92
2023-03-25T10:13:18.224Z,100894.27
2023-03-25T10:16:07.150Z,100890.96
2023-03-25T10:18:55.913Z,100887.21
2023-03-25T10:21:24.301Z,100883.20
2023-03-25T10:24:00.711Z,100886.14
2023-03-25T10:26:42.070Z,100887.25
2023-03-25T10:29:14.703Z,100889.08
2023-03-25T10:31:50.407Z,100886.98
2023-03-25T10:34:19.483Z,100883.30
2023-03-25T10:36:52.235Z,100876.98
2023-03-25T10:39:21.639Z,100873.69
2023-03-25T10:42:27.284Z,100875.78
2023-03-25T10:44:55.629Z,100868.36
2023-03-25T10:47:33.283Z,100863.25
2023-03-25T10:50:01.497Z,100859.69
2023-03-25T10:52:30.164Z,100854.68
2023-03-25T10:55:01.232Z,100853.74
2023-03-25T10:57:30.027Z,100849.27
2023-03-25T11:00:19.784Z,100842.33
2023-03-25T11:02:49.481Z,100840.59
2023-03-25T11:05:20.482Z,100834.98
2023-03-25T11:07:52.156Z,100831.39
2023-03-25T11:10:28.521Z,100828.86
2023-03-25T11:13:03.980Z,100820.86
2023-03-25T11:15:35.521Z,100814.73
2023-03-25T11:18:15.445Z,100813.64
2023-03-25T11:20:50.031Z,100807.58
2023-03-25T11:23:25.504Z,100811.54
2023-03-25T11:25:57.275Z,100810.58
2023-03-25T11:28:39.977Z,100807.27
2023-03-25T11:31:13.888Z,100801.77
2023-03-25T11:33:43.476Z,100798.48
2023-03-25T11:36:17.863Z,100790.17
2023-03-25T11:38:47.672Z,100786.55
2023-03-25T11:41:15.834Z,100784.31
2023-03-25T11:43:47.958Z,100779.89
2023-03-25T11:46:18.441Z,100779.68
2023-03-25T11:48:50.402Z,100779.66
2023-03-25T11:51:31.984Z,100776.98
2023-03-25T11:54:08.730Z,100773.72
2023-03-25T11:56:41.655Z,100773.23
2023-03-25T11:59:27.803Z,100776.64
2023-03-25T12:02:23.570Z,100772.11
2023-03-25T12:05:01.321Z,100768.29
2023-03-25T12:07:29.973Z,100765.48
2023-03-25T12:10:00.357Z,100760.73
2023-03-25T12:12:55.535Z,100759.55
2023-03-25T12:15:42.657Z,100753.92
2023-03-25T12:18:36.537Z,100750.52
2023-03-25T12:21:16.451Z,100751.23
2023-03-25T12:24:11.766Z,100743.20
2023-03-25T12:27:08.380Z,100733.41
2023-03-25T12:29:54.896Z,100732.40
2023-03-25T12:32:29.925Z,100728.94
2023-03-25T12:35:14.747Z,100729.89
2023-03-25T12:38:00.925Z,100727.06
2023-03-25T12:40:32.925Z,100726.13
2023-03-25T12:43:11.377Z,100724.03
2023-03-25T12:45:58.031Z,100720.60
2023-03-25T12:48:38.386Z,100719.39
2023-03-25T12:51:15.788Z,100722.55
2023-03-25T12:54:07.318Z,100723.16
2023-03-25T12:56:40.118Z,100723.02
2023-03-25T12:59:34.462Z,100724.06
2023-03-25T13:02:18.428Z,100721.52
2023-03-25T13:04:50.739Z,100716.38
2023-03-25T13:07:21.867Z,100711.45
2023-03-25T13:10:09.442Z,100710.11
2023-03-25T13:12:42.937Z,100711.06
2023-03-25T13:15:26.056Z,100711.13
2023-03-25T13:18:07.691Z,100710.13
2023-03-25T13:20:43.182Z,100703.98
2023-03-25T13:23:13.855Z,100693.54
2023-03-25T13:25:48.754Z,100683.55
2023-03-25T13:28:19.000Z,100678.43
2023-03-25T13:30:47.202Z,100681.79
2023-03-25T13:33:29.341Z,100685.90
2023-03-25T13:36:20.597Z,100686.10
2023-03-25T13:38:52.373Z,100679.81
2023-03-25T13:41:44.222Z,100678.66
2023-03-25T13:44:22.514Z,100672.78
2023-03-25T13:46:56.202Z,100670.30
2023-03-25T13:49:30.315Z,100667.27
2023-03-25T13:51:58.784Z,100665.02
2023-03-25T13:54:34.930Z,100660.38
2023-03-25T13:57:09.636Z,100656.30
2023-03-25T14:00:10.289Z,100648.34
2023-03-25T14:03:10.803Z,100645.08
2023-03-25T14:05:44.279Z,100637.98
2023-03-25T14:08:28.819Z,100627.84
2023-03-25T14:11:16.101Z,100623.89
2023-03-25T14:13:53.292Z,100628.05
2023-03-25T14:16:29.049Z,100633.09
2023-03-25T14:19:03.612Z,100641.63
2023-03-25T14:21:39.699Z,100635.03
2023-03-25T14:24:16.660Z,100629.80
2023-03-25T14:27:03.837Z,100615.38
2023-03-25T14:29:39.949Z,100600.92
2023-03-25T14:32:17.744Z,100587.80
2023-03-25T14:34:52.755Z,100577.76
2023-03-25T14:37:26.324Z,100583.39
2023-03-25T14:40:00.845Z,100579.53
2023-03-25T14:42:31.080Z,100577.61
2023-03-25T14:45:32.163Z,100580.91
2023-03-25T14:48:00.850Z,100590.64
2023-03-25T14:50:32.028Z,100598.81
2023-03-25T14:53:04.875Z,100598.04
2023-03-25T14:55:41.852Z,100602.62
2023-03-25T14:58:23.300Z,100602.10
2023-03-25T15:01:30.240Z,100615.36
2023-03-25T15:04:08.444Z,100623.50
2023-03-25T15:06:37.304Z,100620.97
2023-03-25T15:09:12.038Z,100611.89
2023-03-25T15:11:41.972Z,100615.79
2023-03-25T15:14:19.111Z,100613.89
2023-03-25T15:16:48.355Z,100612.02
2023-03-25T15:19:19.482Z,100599.92
2023-03-25T15:21:59.302Z,100593.58
2023-03-25T15:24:32.005Z,100596.00
2023-03-25T15:27:15.970Z,100596.71
2023-03-25T15:30:06.275Z,100594.36
2023-03-25T15:33:12.087Z,100591.96
2023-03-25T15:35:59.421Z,100596.52
2023-03-25T15:39:15.310Z,100586.10
2023-03-25T15:41:47.300Z,100589.67
2023-03-25T15:44:40.200Z,100587.95
2023-03-25T15:47:26.099Z,100589.61
2023-03-25T15:50:00.482Z,100589.76
2023-03-25T15:52:51.192Z,100582.05
2023-03-25T15:55:40.000Z,100577.15
2023-03-25T15:58:14.321Z,100580.11
2023-03-25T16:00:47.406Z,100579.37
2023-03-25T16:03:22.890Z,100587.50
2023-03-25T16:05:53.694Z,100591.64
2023-03-25T16:08:40.189Z,100589.39
2023-03-25T16:11:20.765Z,100587.11
2023-03-25T16:13:58.553Z,100593.20
2023-03-25T16:16:29.886Z,100591.07
2023-03-25T16:18:59.216Z,100588.61
2023-03-25T16:21:31.055Z,100597.95
2023-03-25T16:24:03.763Z,100600.59
2023-03-25T16:26:42.581Z,100609.23
2023-03-25T16:29:20.367Z,100612.90
2023-03-25T16:32:02.971Z,100612.68
2023-03-25T16:34:38.016Z,100607.64
2023-03-25T16:37:07.068Z,100610.45
2023-03-25T16:39:36.390Z,100605.17
2023-03-25T16:42:08.113Z,100603.48
2023-03-25T16:44:36.875Z,100597.90
2023-03-25T16:47:05.675Z,100596.65
2023-03-25T16:49:37.545Z,100593.45
2023-03-25T16:52:15.730Z,100592.38
2023-03-25T16:54:49.137Z,100587.52
2023-03-25T16:57:29.389Z,100592.70
2023-03-25T16:59:58.158Z,100593.36
2023-03-25T17:02:31.218Z,100593.30
2023-03-25T17:05:19.096Z,100599.52
2023-03-25T17:07:57.474Z,100595.73
2023-03-25T17:10:28.368Z,100598.58
2023-03-25T17:13:07.583Z,100602.73
2023-03-25T17:15:38.436Z,100603.01
2023-03-25T17:18:07.475Z,100601.30
2023-03-25T17:20:43.581Z,100598.70
2023-03-25T17:23:18.360Z,100598.34
2023-03-25T17:25:57.364Z,100596.73
2023-03-25T17:28:38.718Z,100592.50
2023-03-25T17:31:25.816Z,100587.08
2023-03-25T17:34:12.830Z,100577.36
2023-03-25T17:36:45.525Z,100574.11
2023-03-25T17:39:40.079Z,100570.61
2023-03-25T17:42:12.838Z,100572.96
2023-03-25T17:44:43.866Z,100579.45
2023-03-25T17:47:16.827Z,100580.96
2023-03-25T17:49:45.247Z,100579.11
2023-03-25T17:52:14.334Z,100580.33
2023-03-25T17:54:42.614Z,100576.02
2023-03-25T17:57:14.740Z,100577.91
2023-03-25T17:59:43.967Z,100574.45
2023-03-25T18:02:14.919Z,100571.56
2023-03-25T18:04:43.382Z,100573.93
2023-03-25T18:07:13.427Z,100575.64
2023-03-25T18:09:42.540Z,100569.02
2023-03-25T18:12:15.865Z,100569.09
2023-03-25T18:14:44.990Z,100563.30
2023-03-25T18:17:13.364Z,100559.36
2023-03-25T18:19:46.689Z,100557.77
2023-03-25T18:24:48.231Z,100548.71
2023-03-25T18:27:27.801Z,100545.52
2023-03-25T18:30:30.912Z,100544.35
2023-03-25T18:32:59.696Z,100544.88
2023-03-25T18:35:27.964Z,100544.09
2023-03-25T18:37:57.813Z,100536.34
2023-03-25T18:40:36.044Z,100538.20
2023-03-25T18:43:04.579Z,100546.25
2023-03-25T18:45:32.819Z,100551.55
2023-03-25T18:48:02.724Z,100544.13
2023-03-25T18:50:49.696Z,100542.02
2023-03-25T18:53:19.495Z,100547.20
2023-03-25T18:55:50.020Z,100550.44
2023-03-25T18:58:19.638Z,100547.80
2023-03-25T19:00:48.504Z,100548.28
2023-03-25T19:03:18.515Z,100549.23
2023-03-25T19:05:50.340Z,100542.55
2023-03-25T19:08:23.649Z,100541.14
2023-03-25T19:10:55.894Z,100538.62
2023-03-25T19:13:35.692Z,100537.36
2023-03-25T19:16:04.140Z,100538.22
2023-03-25T19:18:33.102Z,100528.10
2023-03-25T19:21:10.686Z,100527.34
2023-03-25T19:23:41.876Z,100526.54
2023-03-25T19:26:10.137Z,100526.02
2023-03-25T19:28:38.690Z,100521.23
2023-03-25T19:31:06.889Z,100522.80
2023-03-25T19:33:35.174Z,100518.57
2023-03-25T19:36:04.671Z,100518.89
2023-03-25T19:38:33.191Z,100519.41
2023-03-25T19:41:05.927Z,100516.98
2023-03-25T19:43:37.310Z,100510.81
2023-03-25T19:46:05.862Z,100509.65
2023-03-25T19:48:34.531Z,100515.09
2023-03-25T19:51:03.029Z,100517.08
2023-03-25T19:53:34.464Z,100513.90
2023-03-25T19:56:04.277Z,100514.23
2023-03-25T19:58:32.678Z,100512.22
2023-03-25T20:01:02.028Z,100512.52
2023-03-25T20:03:32.882Z,100513.30
2023-03-25T20:06:02.388Z,100512.73
2023-03-25T20:08:32.139Z,100507.45
2023-03-25T20:11:01.417Z,100506.86
2023-03-25T20:13:36.705Z,100504.63
2023-03-25T20:16:05.412Z,100501.16
2023-03-25T20:18:33.813Z,100499.55
2023-03-25T20:21:07.848Z,100492.13
2023-03-25T20:23:36.714Z,100491.89
2023-03-25T20:26:05.688Z,100494.94
2023-03-25T20:28:34.050Z,100494.30
2023-03-25T20:31:15.085Z,100490.48
2023-03-25T20:33:43.291Z,100483.50
2023-03-25T20:36:11.772Z,100473.71
2023-03-25T20:38:47.332Z,100466.57
2023-03-25T20:41:24.243Z,100458.22
2023-03-25T20:43:52.332Z,100460.23
2023-03-25T20:46:23.971Z,100456.86
2023-03-25T20:48:52.406Z,100453.65
2023-03-25T20:51:20.486Z,100454.69
2023-03-25T20:53:48.837Z,100455.01
2023-03-25T20:56:17.022Z,100459.42
2023-03-25T20:58:46.022Z,100450.80
2023-03-25T21:01:15.732Z,100447.52
2023-03-25T21:03:45.057Z,100445.77
2023-03-25T21:06:24.374Z,100442.13
2023-03-25T21:08:54.885Z,100444.04
2023-03-25T21:11:23.190Z,100440.83
2023-03-25T21:13:51.600Z,100432.34
2023-03-25T21:16:20.285Z,100427.13
2023-03-25T21:18:50.247Z,100426.99
2023-03-25T21:21:19.833Z,100420.66
2023-03-25T21:23:49.498Z,100414.15
2023-03-25T21:26:23.078Z,100407.85
2023-03-25T21:28:53.233Z,100402.78
2023-03-25T21:31:22.270Z,100402.10
2023-03-25T21:33:52.883Z,100399.71
2023-03-25T21:36:24.408Z,100397.10
2023-03-25T21:38:56.620Z,100395.88
2023-03-25T21:41:25.089Z,100388.23
2023-03-25T21:43:53.645Z,100383.16
2023-03-25T21:46:27.729Z,100378.67
2023-03-25T21:48:58.757Z,100378.26
2023-03-25T21:51:30.845Z,100373.98
2023-03-25T21:54:00.209Z,100369.30
2023-03-25T21:56:31.521Z,100366.29
2023-03-25T21:59:02.020Z,100371.58
2023-03-25T22:01:32.851Z,100376.04
2023-03-25T22:04:01.390Z,100379.04
2023-03-25T22:06:31.582Z,100376.19
2023-03-25T22:09:05.624Z,100375.48
2023-03-25T22:11:35.710Z,100376.69
2023-03-25T22:14:05.740Z,100371.16
2023-03-25T22:16:35.025Z,100370.09
2023-03-25T22:19:03.693Z,100371.84
2023-03-25T22:21:34.441Z,100369.78
2023-03-25T22:24:05.424Z,100367.94
2023-03-25T22:26:35.323Z,100378.30
2023-03-25T22:29:06.148Z,100377.98
2023-03-25T22:31:39.729Z,100382.02
2023-03-25T22:34:12.976Z,100389.19
2023-03-25T22:36:46.354Z,100400.02
2023-03-25T22:39:15.159Z,100401.10
2023-03-25T22:41:45.074Z,100394.02
2023-03-25T22:44:17.104Z,100385.77
2023-03-25T22:46:48.852Z,100380.78
2023-03-25T22:49:17.526Z,100389.59
2023-03-25T22:51:47.901Z,100388.35
2023-03-25T22:54:16.256Z,100388.98
2023-03-25T22:56:44.527Z,100384.91
2023-03-25T22:59:14.537Z,100382.33
2023-03-25T23:01:47.362Z,100385.00
2023-03-25T23:04:16.595Z,100384.65
2023-03-25T23:06:53.940Z,100382.17
2023-03-25T23:09:41.968Z,100378.52
2023-03-25T23:12:14.600Z,100381.43
2023-03-25T23:14:44.408Z,100379.78
2023-03-25T23:17:13.723Z,100381.68
2023-03-25T23:19:41.922Z,100375.40
2023-03-25T23:22:16.677Z,100376.83
2023-03-25T23:24:45.835Z,100377.08
2023-03-25T23:27:14.066Z,100377.31
2023-03-25T23:29:45.076Z,100375.68
2023-03-25T23:32:14.676Z,100366.67
2023-03-25T23:34:42.895Z,100364.31
2023-03-25T23:37:11.220Z,100362.06
2023-03-25T23:39:40.641Z,100354.27
2023-03-25T23:42:09.417Z,100359.92
2023-03-25T23:44:38.028Z,100361.48
2023-03-25T23:47:06.327Z,100364.27
2023-03-25T23:49:38.480Z,100367.45
2023-03-25T23:52:11.463Z,100368.83
2023-03-25T23:54:41.867Z,100365.98
2023-03-25T23:57:10.576Z,100367.70
2023-03-25T23:59:40.738Z,100364.55
